sensor_id;sensor_type;location;lat;lon;timestamp;temperature;humidity
22676;DHT22;12521;43.310;21.876;2023-12-07T00:00:05;3.6;96.0
22676;DHT22;12521;43.310;21.876;2023-12-07T00:04:46;3.6;96.0
22676;DHT22;12521;43.310;21.876;2023-12-07T00:09:23;3.5;96.0
22676;DHT22;12521;43.310;21.876;2023-12-07T00:13:59;3.5;96.0
22676;DHT22;12521;43.310;21.876;2023-12-07T00:18:36;3.4;96.0
22676;DHT22;12521;43.310;21.876;2023-12-07T00:23:12;3.4;96.0
22676;DHT22;12521;43.310;21.876;2023-12-07T00:27:49;3.4;96.0
22676;DHT22;12521;43.310;21.876;2023-12-07T00:32:25;3.4;96.0
22676;DHT22;12521;43.310;21.876;2023-12-07T00:37:01;3.4;96.0
22676;DHT22;12521;43.310;21.876;2023-12-07T00:41:38;3.4;96.0
22676;DHT22;12521;43.310;21.876;2023-12-07T00:46:14;3.4;96.0
22676;DHT22;12521;43.310;21.876;2023-12-07T00:50:51;3.4;96.0
22676;DHT22;12521;43.310;21.876;2023-12-07T00:55:27;3.4;96.0
22676;DHT22;12521;43.310;21.876;2023-12-07T01:00:04;3.4;96.0
22676;DHT22;12521;43.310;21.876;2023-12-07T01:04:43;3.4;96.0
22676;DHT22;12521;43.310;21.876;2023-12-07T01:09:19;3.4;96.0
22676;DHT22;12521;43.310;21.876;2023-12-07T01:13:56;3.4;96.0
22676;DHT22;12521;43.310;21.876;2023-12-07T01:18:32;3.4;96.0
22676;DHT22;12521;43.310;21.876;2023-12-07T01:23:08;3.4;96.0
22676;DHT22;12521;43.310;21.876;2023-12-07T01:27:44;3.4;96.0
22676;DHT22;12521;43.310;21.876;2023-12-07T01:32:21;3.5;96.0
22676;DHT22;12521;43.310;21.876;2023-12-07T01:36:57;3.5;96.0
22676;DHT22;12521;43.310;21.876;2023-12-07T01:41:33;3.4;96.0
22676;DHT22;12521;43.310;21.876;2023-12-07T01:46:10;3.4;96.0
22676;DHT22;12521;43.310;21.876;2023-12-07T01:50:47;3.3;96.0
22676;DHT22;12521;43.310;21.876;2023-12-07T01:55:25;3.3;96.0
22676;DHT22;12521;43.310;21.876;2023-12-07T02:00:09;3.2;96.0
22676;DHT22;12521;43.310;21.876;2023-12-07T02:04:50;3.2;96.0
22676;DHT22;12521;43.310;21.876;2023-12-07T02:09:27;3.2;96.0
22676;DHT22;12521;43.310;21.876;2023-12-07T02:14:04;3.2;96.0
22676;DHT22;12521;43.310;21.876;2023-12-07T02:18:46;3.3;96.0
22676;DHT22;12521;43.310;21.876;2023-12-07T02:23:51;3.3;96.0
22676;DHT22;12521;43.310;21.876;2023-12-07T02:28:31;3.4;96.0
22676;DHT22;12521;43.310;21.876;2023-12-07T02:33:08;3.4;96.0
22676;DHT22;12521;43.310;21.876;2023-12-07T02:37:48;3.4;96.0
22676;DHT22;12521;43.310;21.876;2023-12-07T02:42:28;3.4;96.0
22676;DHT22;12521;43.310;21.876;2023-12-07T02:47:08;3.4;96.0
22676;DHT22;12521;43.310;21.876;2023-12-07T02:51:45;3.4;96.0
22676;DHT22;12521;43.310;21.876;2023-12-07T02:56:21;3.4;96.0
22676;DHT22;12521;43.310;21.876;2023-12-07T03:00:57;3.3;96.0
22676;DHT22;12521;43.310;21.876;2023-12-07T03:05:33;3.3;96.0
22676;DHT22;12521;43.310;21.876;2023-12-07T03:10:10;3.2;96.0
22676;DHT22;12521;43.310;21.876;2023-12-07T03:14:46;3.2;96.0
22676;DHT22;12521;43.310;21.876;2023-12-07T03:19:22;3.2;96.0
22676;DHT22;12521;43.310;21.876;2023-12-07T03:23:59;3.2;96.0
22676;DHT22;12521;43.310;21.876;2023-12-07T03:28:35;3.1;96.0
22676;DHT22;12521;43.310;21.876;2023-12-07T03:33:12;3.1;96.0
22676;DHT22;12521;43.310;21.876;2023-12-07T03:37:48;3.1;96.0
22676;DHT22;12521;43.310;21.876;2023-12-07T03:42:24;3.1;96.0
22676;DHT22;12521;43.310;21.876;2023-12-07T03:47:00;3.1;96.0
22676;DHT22;12521;43.310;21.876;2023-12-07T03:51:37;3.1;96.0
22676;DHT22;12521;43.310;21.876;2023-12-07T03:56:22;3.1;96.0
22676;DHT22;12521;43.310;21.876;2023-12-07T04:01:00;3.0;96.0
22676;DHT22;12521;43.310;21.876;2023-12-07T04:05:37;3.0;96.0
22676;DHT22;12521;43.310;21.876;2023-12-07T04:10:14;3.0;96.0
22676;DHT22;12521;43.310;21.876;2023-12-07T04:14:51;3.0;96.0
22676;DHT22;12521;43.310;21.876;2023-12-07T04:19:27;2.7;96.0
22676;DHT22;12521;43.310;21.876;2023-12-07T04:24:04;2.7;96.0
22676;DHT22;12521;43.310;21.876;2023-12-07T04:28:41;2.4;96.0
22676;DHT22;12521;43.310;21.876;2023-12-07T04:33:18;2.4;96.0
22676;DHT22;12521;43.310;21.876;2023-12-07T04:37:54;2.4;96.0
22676;DHT22;12521;43.310;21.876;2023-12-07T04:42:30;2.3;96.0
22676;DHT22;12521;43.310;21.876;2023-12-07T04:47:07;2.3;96.0
22676;DHT22;12521;43.310;21.876;2023-12-07T04:51:43;2.2;96.0
22676;DHT22;12521;43.310;21.876;2023-12-07T04:56:19;2.2;96.0
22676;DHT22;12521;43.310;21.876;2023-12-07T05:00:55;2.4;96.0
22676;DHT22;12521;43.310;21.876;2023-12-07T05:05:31;2.4;96.0
22676;DHT22;12521;43.310;21.876;2023-12-07T05:10:08;2.5;96.0
22676;DHT22;12521;43.310;21.876;2023-12-07T05:14:45;2.5;96.0
22676;DHT22;12521;43.310;21.876;2023-12-07T05:19:21;2.4;96.0
22676;DHT22;12521;43.310;21.876;2023-12-07T05:23:58;2.4;96.0
22676;DHT22;12521;43.310;21.876;2023-12-07T05:28:36;2.2;96.0
22676;DHT22;12521;43.310;21.876;2023-12-07T05:33:12;2.2;96.0
22676;DHT22;12521;43.310;21.876;2023-12-07T05:37:50;2.2;96.0
22676;DHT22;12521;43.310;21.876;2023-12-07T05:42:27;2.0;96.0
22676;DHT22;12521;43.310;21.876;2023-12-07T05:47:03;2.0;96.0
22676;DHT22;12521;43.310;21.876;2023-12-07T05:51:40;1.8;96.0
22676;DHT22;12521;43.310;21.876;2023-12-07T05:56:18;1.8;96.0
22676;DHT22;12521;43.310;21.876;2023-12-07T06:00:57;1.9;96.0
22676;DHT22;12521;43.310;21.876;2023-12-07T06:05:38;1.9;96.0
22676;DHT22;12521;43.310;21.876;2023-12-07T06:10:16;2.0;96.0
22676;DHT22;12521;43.310;21.876;2023-12-07T06:14:52;2.0;96.0
22676;DHT22;12521;43.310;21.876;2023-12-07T06:19:29;2.0;96.0
22676;DHT22;12521;43.310;21.876;2023-12-07T06:24:05;2.0;96.0
22676;DHT22;12521;43.310;21.876;2023-12-07T06:28:42;2.0;96.0
22676;DHT22;12521;43.310;21.876;2023-12-07T06:33:18;2.0;96.0
22676;DHT22;12521;43.310;21.876;2023-12-07T06:37:54;2.0;96.0
22676;DHT22;12521;43.310;21.876;2023-12-07T06:42:30;2.1;96.0
22676;DHT22;12521;43.310;21.876;2023-12-07T06:47:07;2.1;96.0
22676;DHT22;12521;43.310;21.876;2023-12-07T06:51:43;2.2;96.0
22676;DHT22;12521;43.310;21.876;2023-12-07T06:56:19;2.2;96.0
22676;DHT22;12521;43.310;21.876;2023-12-07T07:00:55;2.2;96.0
22676;DHT22;12521;43.310;21.876;2023-12-07T07:05:32;2.2;96.0
22676;DHT22;12521;43.310;21.876;2023-12-07T07:10:09;2.3;96.0
22676;DHT22;12521;43.310;21.876;2023-12-07T07:14:45;2.3;96.0
22676;DHT22;12521;43.310;21.876;2023-12-07T07:19:21;2.3;96.0
22676;DHT22;12521;43.310;21.876;2023-12-07T07:23:58;2.3;96.0
22676;DHT22;12521;43.310;21.876;2023-12-07T07:28:34;2.3;96.0
22676;DHT22;12521;43.310;21.876;2023-12-07T07:33:10;2.3;96.0
22676;DHT22;12521;43.310;21.876;2023-12-07T07:37:46;2.3;96.0
22676;DHT22;12521;43.310;21.876;2023-12-07T07:42:23;2.3;96.0
22676;DHT22;12521;43.310;21.876;2023-12-07T07:46:59;2.3;96.0
22676;DHT22;12521;43.310;21.876;2023-12-07T07:51:35;2.4;96.0
22676;DHT22;12521;43.310;21.876;2023-12-07T07:56:11;2.4;96.0
22676;DHT22;12521;43.310;21.876;2023-12-07T08:00:47;2.4;96.0
22676;DHT22;12521;43.310;21.876;2023-12-07T08:05:23;2.4;96.0
22676;DHT22;12521;43.310;21.876;2023-12-07T08:10:00;2.4;96.0
22676;DHT22;12521;43.310;21.876;2023-12-07T08:14:36;2.4;96.0
22676;DHT22;12521;43.310;21.876;2023-12-07T08:19:13;2.3;96.0
22676;DHT22;12521;43.310;21.876;2023-12-07T08:23:50;2.3;96.0
22676;DHT22;12521;43.310;21.876;2023-12-07T08:28:26;2.3;96.0
22676;DHT22;12521;43.310;21.876;2023-12-07T08:33:03;2.3;96.0
22676;DHT22;12521;43.310;21.876;2023-12-07T08:37:39;2.3;96.0
22676;DHT22;12521;43.310;21.876;2023-12-07T08:42:16;2.2;96.0
22676;DHT22;12521;43.310;21.876;2023-12-07T08:46:52;2.2;96.0
22676;DHT22;12521;43.310;21.876;2023-12-07T08:51:28;2.2;96.0
22676;DHT22;12521;43.310;21.876;2023-12-07T08:56:06;2.2;96.0
22676;DHT22;12521;43.310;21.876;2023-12-07T09:00:43;2.3;96.0
22676;DHT22;12521;43.310;21.876;2023-12-07T09:05:19;2.3;96.0
22676;DHT22;12521;43.310;21.876;2023-12-07T09:09:56;2.4;96.0
22676;DHT22;12521;43.310;21.876;2023-12-07T09:14:32;2.4;96.0
22676;DHT22;12521;43.310;21.876;2023-12-07T09:19:08;2.6;96.0
22676;DHT22;12521;43.310;21.876;2023-12-07T09:23:44;2.6;96.0
22676;DHT22;12521;43.310;21.876;2023-12-07T09:28:20;2.6;96.0
22676;DHT22;12521;43.310;21.876;2023-12-07T09:32:56;2.7;96.0
22676;DHT22;12521;43.310;21.876;2023-12-07T09:37:33;2.7;96.0
22676;DHT22;12521;43.310;21.876;2023-12-07T09:42:10;2.8;96.0
22676;DHT22;12521;43.310;21.876;2023-12-07T09:46:47;2.8;96.0
22676;DHT22;12521;43.310;21.876;2023-12-07T09:51:24;2.9;96.0
22676;DHT22;12521;43.310;21.876;2023-12-07T09:56:06;2.9;96.0
22676;DHT22;12521;43.310;21.876;2023-12-07T10:00:46;2.9;96.0
22676;DHT22;12521;43.310;21.876;2023-12-07T10:05:23;2.9;96.0
22676;DHT22;12521;43.310;21.876;2023-12-07T10:10:00;2.9;96.0
22676;DHT22;12521;43.310;21.876;2023-12-07T10:14:37;2.9;96.0
22676;DHT22;12521;43.310;21.876;2023-12-07T10:19:14;2.9;96.0
22676;DHT22;12521;43.310;21.876;2023-12-07T10:23:52;2.9;96.0
22676;DHT22;12521;43.310;21.876;2023-12-07T10:28:29;2.9;96.0
22676;DHT22;12521;43.310;21.876;2023-12-07T10:33:06;2.9;96.0
22676;DHT22;12521;43.310;21.876;2023-12-07T10:37:43;2.9;96.0
22676;DHT22;12521;43.310;21.876;2023-12-07T10:42:24;3.0;96.0
22676;DHT22;12521;43.310;21.876;2023-12-07T10:47:10;3.0;96.0
22676;DHT22;12521;43.310;21.876;2023-12-07T10:51:51;3.0;96.0
22676;DHT22;12521;43.310;21.876;2023-12-07T10:56:49;3.0;96.0
22676;DHT22;12521;43.310;21.876;2023-12-07T11:01:27;3.2;96.0
22676;DHT22;12521;43.310;21.876;2023-12-07T11:06:09;3.2;96.0
22676;DHT22;12521;43.310;21.876;2023-12-07T11:10:53;3.4;96.0
22676;DHT22;12521;43.310;21.876;2023-12-07T11:15:59;3.4;96.0
22676;DHT22;12521;43.310;21.876;2023-12-07T11:20:41;3.4;96.0
22676;DHT22;12521;43.310;21.876;2023-12-07T11:25:21;3.4;96.0
22676;DHT22;12521;43.310;21.876;2023-12-07T11:29:59;3.5;96.0
22676;DHT22;12521;43.310;21.876;2023-12-07T11:34:40;3.5;96.0
22676;DHT22;12521;43.310;21.876;2023-12-07T11:39:19;3.3;96.0
22676;DHT22;12521;43.310;21.876;2023-12-07T11:43:58;3.3;96.0
22676;DHT22;12521;43.310;21.876;2023-12-07T11:48:34;3.1;96.0
22676;DHT22;12521;43.310;21.876;2023-12-07T11:53:11;3.1;96.0
22676;DHT22;12521;43.310;21.876;2023-12-07T11:57:47;3.1;96.0
22676;DHT22;12521;43.310;21.876;2023-12-07T12:02:25;3.2;96.0
22676;DHT22;12521;43.310;21.876;2023-12-07T12:07:02;3.2;96.0
22676;DHT22;12521;43.310;21.876;2023-12-07T12:11:44;3.3;96.0
22676;DHT22;12521;43.310;21.876;2023-12-07T12:16:22;3.3;96.0
22676;DHT22;12521;43.310;21.876;2023-12-07T12:20:59;3.4;96.0
22676;DHT22;12521;43.310;21.876;2023-12-07T12:25:36;3.4;96.0
22676;DHT22;12521;43.310;21.876;2023-12-07T12:30:15;3.6;96.0
22676;DHT22;12521;43.310;21.876;2023-12-07T12:34:55;3.6;96.0
22676;DHT22;12521;43.310;21.876;2023-12-07T12:39:31;3.6;96.0
22676;DHT22;12521;43.310;21.876;2023-12-07T12:44:08;3.6;96.0
22676;DHT22;12521;43.310;21.876;2023-12-07T12:48:52;3.5;96.0
22676;DHT22;12521;43.310;21.876;2023-12-07T12:53:35;3.5;96.0
22676;DHT22;12521;43.310;21.876;2023-12-07T12:58:11;3.5;96.0
22676;DHT22;12521;43.310;21.876;2023-12-07T13:02:47;3.5;96.0
22676;DHT22;12521;43.310;21.876;2023-12-07T13:07:24;3.5;96.0
22676;DHT22;12521;43.310;21.876;2023-12-07T13:12:00;3.5;96.0
22676;DHT22;12521;43.310;21.876;2023-12-07T13:16:36;3.5;96.0
22676;DHT22;12521;43.310;21.876;2023-12-07T13:21:12;3.4;96.0
22676;DHT22;12521;43.310;21.876;2023-12-07T13:25:49;3.4;96.0
22676;DHT22;12521;43.310;21.876;2023-12-07T13:30:26;3.4;96.0
22676;DHT22;12521;43.310;21.876;2023-12-07T13:35:03;3.4;96.0
22676;DHT22;12521;43.310;21.876;2023-12-07T13:39:43;3.4;96.0
22676;DHT22;12521;43.310;21.876;2023-12-07T13:44:19;3.4;96.0
22676;DHT22;12521;43.310;21.876;2023-12-07T13:48:56;3.3;96.0
22676;DHT22;12521;43.310;21.876;2023-12-07T13:53:33;3.3;96.0
22676;DHT22;12521;43.310;21.876;2023-12-07T13:58:09;3.3;96.0
22676;DHT22;12521;43.310;21.876;2023-12-07T14:02:46;3.4;96.0
22676;DHT22;12521;43.310;21.876;2023-12-07T14:07:23;3.4;96.0
22676;DHT22;12521;43.310;21.876;2023-12-07T14:11:59;3.4;96.0
22676;DHT22;12521;43.310;21.876;2023-12-07T14:16:36;3.4;96.0
22676;DHT22;12521;43.310;21.876;2023-12-07T14:21:12;3.4;96.0
22676;DHT22;12521;43.310;21.876;2023-12-07T14:25:54;3.4;96.0
22676;DHT22;12521;43.310;21.876;2023-12-07T14:30:30;3.3;96.0
22676;DHT22;12521;43.310;21.876;2023-12-07T14:35:07;3.3;96.0
22676;DHT22;12521;43.310;21.876;2023-12-07T14:39:44;3.2;96.0
22676;DHT22;12521;43.310;21.876;2023-12-07T14:44:20;3.2;96.0
22676;DHT22;12521;43.310;21.876;2023-12-07T14:48:56;3.2;96.0
22676;DHT22;12521;43.310;21.876;2023-12-07T14:53:32;3.2;96.0
22676;DHT22;12521;43.310;21.876;2023-12-07T14:58:09;3.2;96.0
22676;DHT22;12521;43.310;21.876;2023-12-07T15:02:45;3.4;96.0
22676;DHT22;12521;43.310;21.876;2023-12-07T15:07:22;3.4;96.0
22676;DHT22;12521;43.310;21.876;2023-12-07T15:11:58;3.5;96.0
22676;DHT22;12521;43.310;21.876;2023-12-07T15:16:34;3.5;96.0
22676;DHT22;12521;43.310;21.876;2023-12-07T15:21:11;3.6;96.0
22676;DHT22;12521;43.310;21.876;2023-12-07T15:25:50;3.6;96.0
22676;DHT22;12521;43.310;21.876;2023-12-07T15:30:26;3.7;96.0
22676;DHT22;12521;43.310;21.876;2023-12-07T15:35:03;3.7;96.0
22676;DHT22;12521;43.310;21.876;2023-12-07T15:39:42;3.7;96.0
22676;DHT22;12521;43.310;21.876;2023-12-07T15:44:18;3.7;96.0
22676;DHT22;12521;43.310;21.876;2023-12-07T15:48:54;3.7;96.0
22676;DHT22;12521;43.310;21.876;2023-12-07T15:53:30;3.7;96.0
22676;DHT22;12521;43.310;21.876;2023-12-07T15:58:06;3.7;96.0
22676;DHT22;12521;43.310;21.876;2023-12-07T16:02:43;3.7;96.0
22676;DHT22;12521;43.310;21.876;2023-12-07T16:07:19;3.7;96.0
22676;DHT22;12521;43.310;21.876;2023-12-07T16:11:56;3.7;96.0
22676;DHT22;12521;43.310;21.876;2023-12-07T16:16:34;3.7;96.0
22676;DHT22;12521;43.310;21.876;2023-12-07T16:21:11;3.7;96.0
22676;DHT22;12521;43.310;21.876;2023-12-07T16:25:48;3.7;96.0
22676;DHT22;12521;43.310;21.876;2023-12-07T16:30:24;3.7;96.0
22676;DHT22;12521;43.310;21.876;2023-12-07T16:35:01;3.7;96.0
22676;DHT22;12521;43.310;21.876;2023-12-07T16:39:41;3.7;96.0
22676;DHT22;12521;43.310;21.876;2023-12-07T16:44:20;3.7;96.0
22676;DHT22;12521;43.310;21.876;2023-12-07T16:48:57;3.7;96.0
22676;DHT22;12521;43.310;21.876;2023-12-07T16:53:33;3.7;96.0
22676;DHT22;12521;43.310;21.876;2023-12-07T16:58:09;3.7;96.0
22676;DHT22;12521;43.310;21.876;2023-12-07T17:02:45;3.8;96.0
22676;DHT22;12521;43.310;21.876;2023-12-07T17:07:21;3.8;96.0
22676;DHT22;12521;43.310;21.876;2023-12-07T17:11:58;3.8;96.0
22676;DHT22;12521;43.310;21.876;2023-12-07T17:16:34;3.8;96.0
22676;DHT22;12521;43.310;21.876;2023-12-07T17:21:10;3.8;96.0
22676;DHT22;12521;43.310;21.876;2023-12-07T17:25:47;3.8;96.0
22676;DHT22;12521;43.310;21.876;2023-12-07T17:30:23;3.8;96.0
22676;DHT22;12521;43.310;21.876;2023-12-07T17:35:00;3.8;96.0
22676;DHT22;12521;43.310;21.876;2023-12-07T17:39:36;3.8;96.0
22676;DHT22;12521;43.310;21.876;2023-12-07T17:44:13;3.8;96.0
22676;DHT22;12521;43.310;21.876;2023-12-07T17:48:49;3.8;96.0
22676;DHT22;12521;43.310;21.876;2023-12-07T17:53:25;3.9;96.0
22676;DHT22;12521;43.310;21.876;2023-12-07T17:58:02;3.9;96.0
22676;DHT22;12521;43.310;21.876;2023-12-07T18:02:38;3.9;96.0
22676;DHT22;12521;43.310;21.876;2023-12-07T18:07:15;3.9;96.0
22676;DHT22;12521;43.310;21.876;2023-12-07T18:11:52;3.9;96.0
22676;DHT22;12521;43.310;21.876;2023-12-07T18:16:28;3.9;96.0
22676;DHT22;12521;43.310;21.876;2023-12-07T18:21:05;3.9;96.0
22676;DHT22;12521;43.310;21.876;2023-12-07T18:25:41;3.9;96.0
22676;DHT22;12521;43.310;21.876;2023-12-07T18:30:18;3.9;96.0
22676;DHT22;12521;43.310;21.876;2023-12-07T18:34:54;3.9;96.0
22676;DHT22;12521;43.310;21.876;2023-12-07T18:39:30;3.9;96.0
22676;DHT22;12521;43.310;21.876;2023-12-07T18:44:06;3.9;96.0
22676;DHT22;12521;43.310;21.876;2023-12-07T18:48:43;3.9;96.0
22676;DHT22;12521;43.310;21.876;2023-12-07T18:53:19;3.9;96.0
22676;DHT22;12521;43.310;21.876;2023-12-07T18:57:56;3.9;96.0
22676;DHT22;12521;43.310;21.876;2023-12-07T19:02:33;4.0;96.0
22676;DHT22;12521;43.310;21.876;2023-12-07T19:07:09;4.0;96.0
22676;DHT22;12521;43.310;21.876;2023-12-07T19:11:46;4.0;96.0
22676;DHT22;12521;43.310;21.876;2023-12-07T19:16:22;4.0;96.0
22676;DHT22;12521;43.310;21.876;2023-12-07T19:20:59;4.0;96.0
22676;DHT22;12521;43.310;21.876;2023-12-07T19:25:35;4.0;96.0
22676;DHT22;12521;43.310;21.876;2023-12-07T19:30:12;3.9;96.0
22676;DHT22;12521;43.310;21.876;2023-12-07T19:34:49;3.9;96.0
22676;DHT22;12521;43.310;21.876;2023-12-07T19:39:25;3.9;96.0
22676;DHT22;12521;43.310;21.876;2023-12-07T19:44:01;3.9;96.0
22676;DHT22;12521;43.310;21.876;2023-12-07T19:48:37;3.9;96.0
22676;DHT22;12521;43.310;21.876;2023-12-07T19:53:13;3.9;96.0
22676;DHT22;12521;43.310;21.876;2023-12-07T19:57:49;3.9;96.0
22676;DHT22;12521;43.310;21.876;2023-12-07T20:02:25;4.0;96.0
22676;DHT22;12521;43.310;21.876;2023-12-07T20:07:01;4.0;96.0
22676;DHT22;12521;43.310;21.876;2023-12-07T20:11:40;4.0;96.0
22676;DHT22;12521;43.310;21.876;2023-12-07T20:16:18;4.0;96.0
22676;DHT22;12521;43.310;21.876;2023-12-07T20:20:56;4.0;96.0
22676;DHT22;12521;43.310;21.876;2023-12-07T20:25:32;4.0;96.0
22676;DHT22;12521;43.310;21.876;2023-12-07T20:30:09;4.0;96.0
22676;DHT22;12521;43.310;21.876;2023-12-07T20:34:48;4.0;96.0
22676;DHT22;12521;43.310;21.876;2023-12-07T20:39:24;4.0;96.0
22676;DHT22;12521;43.310;21.876;2023-12-07T20:44:01;4.0;96.0
22676;DHT22;12521;43.310;21.876;2023-12-07T20:48:37;4.0;96.0
22676;DHT22;12521;43.310;21.876;2023-12-07T20:53:14;3.9;96.0
22676;DHT22;12521;43.310;21.876;2023-12-07T20:57:50;3.9;96.0
22676;DHT22;12521;43.310;21.876;2023-12-07T21:02:26;3.8;96.0
22676;DHT22;12521;43.310;21.876;2023-12-07T21:07:03;3.8;96.0
22676;DHT22;12521;43.310;21.876;2023-12-07T21:11:39;3.8;96.0
22676;DHT22;12521;43.310;21.876;2023-12-07T21:16:16;3.8;96.0
22676;DHT22;12521;43.310;21.876;2023-12-07T21:20:52;3.8;96.0
22676;DHT22;12521;43.310;21.876;2023-12-07T21:25:28;3.8;96.0
22676;DHT22;12521;43.310;21.876;2023-12-07T21:30:06;3.9;96.0
22676;DHT22;12521;43.310;21.876;2023-12-07T21:34:46;3.9;96.0
22676;DHT22;12521;43.310;21.876;2023-12-07T21:39:23;4.0;96.0
22676;DHT22;12521;43.310;21.876;2023-12-07T21:43:59;4.0;96.0
22676;DHT22;12521;43.310;21.876;2023-12-07T21:48:36;4.0;96.0
22676;DHT22;12521;43.310;21.876;2023-12-07T21:53:13;4.0;96.0
22676;DHT22;12521;43.310;21.876;2023-12-07T21:57:49;4.0;96.0
22676;DHT22;12521;43.310;21.876;2023-12-07T22:02:26;4.0;96.0
22676;DHT22;12521;43.310;21.876;2023-12-07T22:07:03;4.0;96.0
22676;DHT22;12521;43.310;21.876;2023-12-07T22:11:42;3.9;96.0
22676;DHT22;12521;43.310;21.876;2023-12-07T22:16:19;3.9;96.0
22676;DHT22;12521;43.310;21.876;2023-12-07T22:20:55;3.9;96.0
22676;DHT22;12521;43.310;21.876;2023-12-07T22:25:32;3.9;96.0
22676;DHT22;12521;43.310;21.876;2023-12-07T22:30:09;3.9;96.0
22676;DHT22;12521;43.310;21.876;2023-12-07T22:34:49;3.9;96.0
22676;DHT22;12521;43.310;21.876;2023-12-07T22:39:25;3.8;96.0
22676;DHT22;12521;43.310;21.876;2023-12-07T22:44:01;3.8;96.0
22676;DHT22;12521;43.310;21.876;2023-12-07T22:48:38;3.8;96.0
22676;DHT22;12521;43.310;21.876;2023-12-07T22:53:14;3.7;96.0
22676;DHT22;12521;43.310;21.876;2023-12-07T22:57:50;3.7;96.0
22676;DHT22;12521;43.310;21.876;2023-12-07T23:02:27;3.7;96.0
22676;DHT22;12521;43.310;21.876;2023-12-07T23:07:03;3.7;96.0
22676;DHT22;12521;43.310;21.876;2023-12-07T23:11:40;3.7;96.0
22676;DHT22;12521;43.310;21.876;2023-12-07T23:16:16;3.7;96.0
22676;DHT22;12521;43.310;21.876;2023-12-07T23:20:54;3.7;96.0
22676;DHT22;12521;43.310;21.876;2023-12-07T23:25:30;3.7;96.0
22676;DHT22;12521;43.310;21.876;2023-12-07T23:30:08;3.7;96.0
22676;DHT22;12521;43.310;21.876;2023-12-07T23:34:47;3.7;96.0
22676;DHT22;12521;43.310;21.876;2023-12-07T23:39:23;3.8;96.0
22676;DHT22;12521;43.310;21.876;2023-12-07T23:43:59;3.8;96.0
22676;DHT22;12521;43.310;21.876;2023-12-07T23:48:35;3.8;96.0
22676;DHT22;12521;43.310;21.876;2023-12-07T23:53:11;3.9;96.0
22676;DHT22;12521;43.310;21.876;2023-12-07T23:57:48;3.9;96.0
